• Join FlightAware (Why Join?)
  • Login
  • US Flag 
03:22PM EST


 

Airport Tracker/Info


-or-


 

Live Flight TrackerFlight Track Log ✈ SWA718 ✈ 26-Apr-2013 ✈ KMDW - KOMA

Flight Track Log - Related Links

Times and Time Zones

All times are in EDT time to prevent confusion due to time zone crossing. See the SWA718 flight status page for this flight to view local times or setup timezone preferences in your user account.

Time Position Orientation Groundspeed Altitude Reporting Facility
EDT Latitude Longitude Course Direction KTS MPH feet Rate Location/Type
11:32PM 41.7406 -87.9028 254° West 202 232 5,900  Level Chicago Center
11:33PM 41.7781 -87.9833 302° West 266 306 9,100 2,760 Climbing Chicago Center
11:34PM 41.8131 -88.0747 297° West 298 343 11,500 2,880 Climbing Chicago Center
11:35PM 41.8081 -88.2042 267° West 348 400 15,000 3,420 Climbing Chicago Center
11:36PM 41.7333 -88.5434 270° West  Level FlightAware Approximate
11:36PM 41.8022 -88.3358 267° West 357 411 18,500  Level Chicago Center
11:37PM 41.7933 -88.5017 266° West 374 430 22,000 3,000 Climbing Chicago Center
11:38PM 41.7847 -88.6472 266° West 392 451 24,600 2,640 Climbing Chicago Center
11:39PM 41.7772 -88.7969 266° West 404 465 27,400 2,880 Climbing Chicago Center
11:40PM 41.7742 -88.9411 268° West 395 455 30,500 2,820 Climbing Chicago Center
11:41PM 41.7728 -89.0806 269° West 381 438 33,100 1,680 Climbing Chicago Center
11:42PM 41.7697 -89.2206 268° West 379 436 34,000 420 Climbing Chicago Center
11:43PM 41.7672 -89.3647 269° West 386 444 34,000  Level Chicago Center
11:44PM 41.7644 -89.5069 269° West 387 445 34,000 780 Level Chicago Center
11:45PM 41.7614 -89.6742 269° West 392 451 35,600 1,500 Climbing Chicago Center
11:46PM 41.7589 -89.8194 269° West 393 452 37,100 1,380 Climbing Chicago Center
11:47PM 41.7550 -89.9669 268° West 397 457 38,500 1,320 Climbing Chicago Center
11:48PM 41.7522 -90.1136 269° West 397 457 39,800 720 Climbing Chicago Center
11:49PM 41.7483 -90.2594 268° West 395 455 40,000 60 Climbing Chicago Center
11:50PM 41.7428 -90.4128 267° West 407 468 40,000  Level Chicago Center
11:51PM 41.7389 -90.5603 268° West 399 459 40,000  Level Chicago Center
11:52PM 41.7339 -90.7103 267° West 397 457 40,000  Level Chicago Center
11:53PM 41.7292 -90.8556 268° West 395 455 40,000  Level Chicago Center
11:54PM 41.7250 -91.0017 268° West 395 455 40,000  Level Chicago Center
11:55PM 41.7194 -91.1475 267° West 395 455 40,000  Level Chicago Center
11:56PM 41.7153 -91.2931 268° West 394 453 40,000  Level Chicago Center
11:57PM 41.7092 -91.4389 267° West 396 456 40,000  Level Chicago Center
11:58PM 41.7042 -91.5858 267° West 397 457 40,000  Level Chicago Center
11:59PM 41.6961 -91.7647 267° West 397 457 40,000  Level Chicago Center
12:00AM 41.6917 -91.9111 268° West 400 460 40,000  Level Chicago Center
12:01AM 41.6850 -92.0583 267° West 399 459 40,000  Level Chicago Center
12:02AM 41.6783 -92.2094 267° West 403 464 40,000  Level Chicago Center
12:03AM 41.6717 -92.3567 267° West 401 461 40,000  Level Chicago Center
12:04AM 41.6647 -92.5050 266° West 400 460 40,000  Level Chicago Center
12:05AM 41.6575 -92.6514 266° West 398 458 40,000  Level Chicago Center
12:06AM 41.6528 -92.7403 266° West 400 460 40,000  Level Minneapolis Center
12:07AM 41.6458 -92.8886 266° West 401 461 40,000  Level Minneapolis Center
12:08AM 41.6386 -93.0372 266° West 403 464 40,000  Level Minneapolis Center
12:09AM 41.6300 -93.1875 266° West 408 470 40,000  Level Minneapolis Center
12:10AM 41.6225 -93.3350 266° West 404 465 40,000  Level Minneapolis Center
12:11AM 41.6136 -93.5150 266° West 408 470 40,000 -960 Level Minneapolis Center
12:12AM 41.6036 -93.6647 265° West 409 471 38,100 -2,340 Descending Minneapolis Center
12:13AM 41.5950 -93.8156 266° West 410 472 35,400 -2,640 Descending Minneapolis Center
12:14AM 41.5889 -93.9656 267° West 410 472 32,800 -2,460 Descending Minneapolis Center
12:15AM 41.5800 -94.1164 266° West 412 474 30,400 -2,400 Descending Minneapolis Center
12:16AM 41.5694 -94.2706 265° West 408 470 28,000 -2,220 Descending Minneapolis Center
12:17AM 41.5600 -94.4161 265° West 398 458 26,000 -1,980 Descending Minneapolis Center
12:18AM 41.5500 -94.5519 264° West 375 432 24,100 -1,860 Descending Minneapolis Center
12:19AM 41.5425 -94.6847 266° West 362 417 22,300 -1,860 Descending Minneapolis Center
12:20AM 41.5475 -94.8117 273° West 359 413 20,700 -2,040 Descending Minneapolis Center
12:20AM 41.5436 -94.8736 265° West 360 414 19,800 -1,740 Descending Minneapolis Center
12:21AM 41.5247 -94.9469 251° West 355 409 18,700 -1,560 Descending Minneapolis Center
12:22AM 41.5172 -95.0744 266° West 346 398 17,000 -1,680 Descending Minneapolis Center
12:23AM 41.5053 -95.2000 263° West 343 395 15,400 -1,740 Descending Minneapolis Center
12:24AM 41.4744 -95.3617 256° West 318 366 13,200 -1,440 Descending Minneapolis Center
12:25AM 41.4517 -95.4231 244° Southwest 320 368 12,500 -1,920 Descending Minneapolis Center
12:26AM 41.4297 -95.5311 255° West 311 358 9,800 -1,800 Descending Minneapolis Center
12:27AM 41.4242 -95.6411 266° West 301 346 8,900 -780 Descending Minneapolis Center
12:28AM 41.4150 -95.7358 263° West 278 320 8,300 -660 Descending Minneapolis Center
12:29AM 41.4108 -95.8033 265° West 223 257 7,600 -1,200 Descending Minneapolis Center
12:30AM 41.4272 -95.8572 292° West 180 207 5,900 -1,740 Descending Minneapolis Center
12:31AM 41.4078 -95.9158 246° West 169 194 4,200 -1,560 Descending Minneapolis Center
12:32AM 41.3742 -95.9456 214° Southwest 155 178 2,800 -1,380 Descending Minneapolis Center
12:32AM 41.3661 -95.9558 224° Southwest 142 163 2,500 -900 Descending Minneapolis Center
12:33AM 41.3467 -95.9361 143° Southeast 148 170 1,900 -840 Descending Minneapolis Center
12:34AM 41.3169 -95.9089 145° Southeast 136 157 1,100 -840 Descending Minneapolis Center